Time;durP1;ratioP1;P1;durP2;ratioP2;P2;SDS_P1;SDS_P2;PMS_P1;PMS_P2;Temp;Humidity;BMP_temperature;BMP_pressure;BME280_temperature;BME280_humidity;BME280_pressure;Samples;Min_cycle;Max_cycle;Signal;HPM_P1;HPM_P2
2023/03/20 00:03:45;;;;;;;19.35;8.38;;;;;;;6.58;100.00;101931.78;10404316;28;20072;-75
2023/03/20 00:08:46;;;;;;;14.10;8.70;;;;;;;6.48;100.00;101945.25;10421509;28;20466;-74
2023/03/20 00:13:47;;;;;;;13.88;7.90;;;;;;;6.45;100.00;101954.47;10420250;28;20053;-74
2023/03/20 00:18:47;;;;;;;29.38;9.45;;;;;;;6.50;100.00;101962.09;10422130;28;20117;-74
2023/03/20 00:23:48;;;;;;;13.10;8.82;;;;;;;6.60;100.00;101979.06;10421028;28;20131;-74
2023/03/20 00:28:48;;;;;;;19.55;8.93;;;;;;;6.72;100.00;101960.91;10422002;28;20064;-74
2023/03/20 00:33:49;;;;;;;17.02;10.13;;;;;;;6.74;100.00;101949.00;10403638;28;20065;-74
2023/03/20 00:38:50;;;;;;;18.80;8.02;;;;;;;6.68;100.00;101949.59;10423219;28;20062;-74
2023/03/20 00:44:14;;;;;;;16.00;10.05;;;;;;;6.66;100.00;101943.50;10418791;28;20385;-74
2023/03/20 00:49:15;;;;;;;16.80;9.38;;;;;;;6.62;100.00;101928.63;10378024;28;20079;-74
2023/03/20 00:54:16;;;;;;;15.05;7.75;;;;;;;6.62;100.00;101912.50;10418682;28;20457;-74
2023/03/20 00:59:18;;;;;;;20.80;11.10;;;;;;;6.56;100.00;101923.84;10385709;28;20025;-74
2023/03/20 01:04:18;;;;;;;10.43;6.57;;;;;;;6.53;100.00;101913.38;10385722;28;20037;-75
2023/03/20 01:09:19;;;;;;;15.07;9.77;;;;;;;6.49;100.00;101925.44;10418933;28;20042;-74
2023/03/20 01:14:19;;;;;;;16.17;9.05;;;;;;;6.48;100.00;101932.66;10417552;28;20120;-73
2023/03/20 01:19:19;;;;;;;21.58;11.63;;;;;;;6.49;100.00;101950.47;10417192;28;20037;-74
2023/03/20 01:24:20;;;;;;;14.43;9.75;;;;;;;6.51;100.00;101970.03;10401429;28;20036;-74
2023/03/20 01:29:24;;;;;;;18.35;10.00;;;;;;;6.55;100.00;101992.13;10417486;28;20117;-74
2023/03/20 01:34:26;;;;;;;14.85;10.55;;;;;;;6.60;100.00;101980.91;10417154;28;20459;-74
2023/03/20 01:39:30;;;;;;;17.15;9.10;;;;;;;6.70;100.00;101974.53;10419375;28;20215;-74
2023/03/20 01:44:32;;;;;;;17.00;10.40;;;;;;;6.77;100.00;101961.34;10401865;28;20469;-74
2023/03/20 01:50:13;;;;;;;12.90;10.02;;;;;;;6.79;100.00;101947.72;10417254;28;20401;-74
2023/03/20 01:55:13;;;;;;;21.13;11.05;;;;;;;6.84;100.00;101948.13;10400609;28;20104;-73
2023/03/20 02:00:15;;;;;;;20.73;11.23;;;;;;;6.87;100.00;101950.53;10399911;28;20036;-74
2023/03/20 02:05:17;;;;;;;29.88;11.50;;;;;;;6.85;100.00;101934.50;10416582;28;20084;-74
2023/03/20 02:10:17;;;;;;;19.05;10.15;;;;;;;6.77;100.00;101926.34;10416293;28;20045;-74
2023/03/20 02:15:18;;;;;;;15.80;10.68;;;;;;;6.59;100.00;101914.63;10399777;28;20429;-74
2023/03/20 02:20:26;;;;;;;21.65;9.90;;;;;;;6.59;100.00;101917.31;10415793;28;20116;-74
2023/03/20 02:25:45;;;;;;;14.18;11.27;;;;;;;6.43;100.00;101907.16;10399696;28;20037;-74
2023/03/20 02:31:16;;;;;;;18.80;10.88;;;;;;;6.33;100.00;101890.22;10416547;28;20084;-75
2023/03/20 02:36:35;;;;;;;12.77;11.20;;;;;;;6.28;100.00;101904.91;10415557;28;20040;-74
2023/03/20 02:41:41;;;;;;;22.15;13.80;;;;;;;6.40;100.00;101907.47;10415228;28;20060;-74
2023/03/20 02:47:03;;;;;;;17.00;12.88;;;;;;;6.49;100.00;101918.19;10415360;28;20028;-74
2023/03/20 02:52:20;;;;;;;21.58;15.18;;;;;;;6.55;100.00;101911.38;10415009;28;20033;-75
2023/03/20 02:57:35;;;;;;;16.50;13.90;;;;;;;6.55;100.00;101906.00;10413566;28;20029;-75
2023/03/20 03:02:46;;;;;;;19.30;11.02;;;;;;;6.60;100.00;101892.94;10400056;28;20052;-74
2023/03/20 03:07:48;;;;;;;23.10;12.45;;;;;;;6.56;100.00;101880.78;10397927;28;20061;-74
2023/03/20 03:12:50;;;;;;;25.27;12.13;;;;;;;6.50;100.00;101870.59;10397041;28;20053;-74
2023/03/20 03:17:50;;;;;;;21.58;14.02;;;;;;;6.45;100.00;101870.22;10415409;28;20124;-74
2023/03/20 03:22:51;;;;;;;19.77;13.07;;;;;;;6.51;100.00;101875.00;10397715;28;20084;-74
2023/03/20 03:27:58;;;;;;;18.52;12.18;;;;;;;6.55;100.00;101859.41;10397286;28;20496;-74
2023/03/20 03:33:11;;;;;;;20.13;14.27;;;;;;;6.54;100.00;101853.19;10397320;28;20033;-74
2023/03/20 03:38:57;;;;;;;19.83;12.38;;;;;;;6.48;100.00;101853.78;10398062;28;20056;-74
2023/03/20 03:44:49;;;;;;;20.73;13.23;;;;;;;6.52;100.00;101857.88;10407233;28;20045;-74
2023/03/20 03:49:57;;;;;;;19.73;11.13;;;;;;;6.44;100.00;101841.59;10391659;28;20045;-75
2023/03/20 03:55:03;;;;;;;21.98;12.52;;;;;;;6.43;100.00;101834.53;10413474;28;20108;-74
2023/03/20 04:00:05;;;;;;;12.53;11.33;;;;;;;6.48;100.00;101832.25;10397814;28;20030;-75
2023/03/20 04:05:06;;;;;;;20.75;11.73;;;;;;;6.46;100.00;101828.84;10414176;28;20442;-74
2023/03/20 04:10:07;;;;;;;15.90;9.88;;;;;;;6.48;100.00;101834.94;10379598;28;20034;-74
2023/03/20 04:15:08;;;;;;;17.13;11.38;;;;;;;6.47;100.00;101835.91;10395894;28;20464;-74
2023/03/20 04:20:09;;;;;;;18.33;11.88;;;;;;;6.56;100.00;101847.66;10417382;28;20033;-75
2023/03/20 04:25:17;;;;;;;21.55;11.75;;;;;;;6.55;100.00;101845.97;10403575;28;20049;-75
2023/03/20 04:30:18;;;;;;;18.83;9.68;;;;;;;6.47;100.00;101847.53;10419765;28;20029;-74
2023/03/20 04:35:19;;;;;;;21.95;12.88;;;;;;;6.52;100.00;101837.19;10421030;28;20030;-74
2023/03/20 04:40:19;;;;;;;14.93;10.82;;;;;;;6.53;100.00;101824.56;10421000;28;20379;-74
2023/03/20 04:45:20;;;;;;;14.68;10.10;;;;;;;6.55;100.00;101821.75;10386267;28;20073;-75
2023/03/20 04:50:20;;;;;;;16.25;12.27;;;;;;;6.60;100.00;101811.38;10420799;28;20504;-75
2023/03/20 04:55:21;;;;;;;27.33;13.32;;;;;;;6.53;100.00;101806.56;10420499;28;20120;-74
2023/03/20 05:00:21;;;;;;;10.45;9.52;;;;;;;6.60;100.00;101800.59;10418466;28;20033;-75
2023/03/20 05:05:22;;;;;;;15.50;11.32;;;;;;;6.52;100.00;101793.28;10401736;28;20038;-74
2023/03/20 05:10:23;;;;;;;26.27;11.88;;;;;;;6.56;100.00;101799.22;10419747;28;20120;-74
2023/03/20 05:15:23;;;;;;;24.15;12.68;;;;;;;6.65;100.00;101806.38;10417303;28;20041;-74
2023/03/20 05:20:24;;;;;;;18.95;9.82;;;;;;;6.65;100.00;101801.00;10418239;28;20124;-74
2023/03/20 05:25:24;;;;;;;17.30;12.00;;;;;;;6.66;100.00;101808.06;10420656;28;20187;-74
2023/03/20 05:30:25;;;;;;;20.05;11.70;;;;;;;6.63;100.00;101800.31;10417310;28;20043;-74
2023/03/20 05:35:25;;;;;;;16.27;11.25;;;;;;;6.62;100.00;101799.47;10417518;28;20457;-74
2023/03/20 05:40:26;;;;;;;19.25;13.15;;;;;;;6.63;100.00;101811.91;10400668;28;20054;-77
2023/03/20 05:45:26;;;;;;;17.75;8.52;;;;;;;6.63;100.00;101805.69;10400491;28;20347;-74
2023/03/20 05:50:27;;;;;;;26.30;10.80;;;;;;;6.68;100.00;101806.09;10416277;28;20049;-76
2023/03/20 05:55:27;;;;;;;17.48;10.23;;;;;;;6.69;100.00;101814.00;10419464;28;20132;-76
2023/03/20 06:00:27;;;;;;;20.63;11.55;;;;;;;6.66;100.00;101817.00;10399397;28;20121;-78
2023/03/20 06:05:28;;;;;;;29.13;9.90;;;;;;;6.75;100.00;101826.03;10383064;28;20128;-76
2023/03/20 06:10:29;;;;;;;20.77;10.73;;;;;;;6.79;100.00;101827.41;10416192;28;20108;-76
2023/03/20 06:15:29;;;;;;;13.80;9.68;;;;;;;6.78;100.00;101828.41;10398802;28;20421;-76
2023/03/20 06:20:30;;;;;;;22.40;9.48;;;;;;;6.86;100.00;101844.69;10416668;28;20029;-76
2023/03/20 06:25:30;;;;;;;21.63;9.85;;;;;;;6.96;100.00;101845.47;10417121;28;20108;-75
2023/03/20 06:30:31;;;;;;;16.70;8.98;;;;;;;7.02;100.00;101849.41;10415989;28;20068;-75
2023/03/20 06:35:32;;;;;;;13.60;8.38;;;;;;;7.04;100.00;101843.84;10415693;28;20414;-75
2023/03/20 06:40:33;;;;;;;16.08;6.78;;;;;;;7.05;100.00;101841.03;10398029;28;20144;-75
2023/03/20 06:45:33;;;;;;;10.90;6.90;;;;;;;7.11;100.00;101851.16;10414946;28;20037;-76
2023/03/20 06:50:34;;;;;;;21.08;8.23;;;;;;;7.09;100.00;101861.25;10413973;28;20054;-75
2023/03/20 06:55:35;;;;;;;10.05;7.32;;;;;;;7.09;100.00;101855.88;10397559;28;20044;-75
2023/03/20 07:00:36;;;;;;;20.63;8.38;;;;;;;7.08;100.00;101848.78;10399835;28;20397;-75
2023/03/20 07:05:37;;;;;;;7.80;4.90;;;;;;;7.15;100.00;101854.44;10413783;28;20065;-76
2023/03/20 07:10:39;;;;;;;24.48;8.00;;;;;;;7.21;100.00;101860.06;10412999;28;20029;-76
2023/03/20 07:15:39;;;;;;;7.15;6.28;;;;;;;7.28;100.00;101859.44;10413484;28;20439;-75
2023/03/20 07:20:40;;;;;;;14.93;6.72;;;;;;;7.32;100.00;101855.44;10396205;28;20030;-76
2023/03/20 07:25:40;;;;;;;16.23;8.07;;;;;;;7.39;100.00;101867.31;10413308;28;20072;-76
2023/03/20 07:30:41;;;;;;;16.30;6.30;;;;;;;7.27;100.00;101866.66;10398822;28;20084;-76
2023/03/20 07:35:41;;;;;;;14.05;7.45;;;;;;;7.19;100.00;101871.97;10414980;28;20124;-77
2023/03/20 07:40:42;;;;;;;12.70;6.65;;;;;;;7.23;100.00;101868.81;10413942;28;20052;-77
2023/03/20 07:45:42;;;;;;;6.78;4.72;;;;;;;7.21;100.00;101868.16;10412949;28;20476;-77
2023/03/20 07:50:43;;;;;;;15.20;7.65;;;;;;;7.26;100.00;101869.53;10413142;28;20040;-78
2023/03/20 07:55:44;;;;;;;12.45;6.00;;;;;;;7.18;100.00;101873.84;10417440;28;20038;-80
2023/03/20 08:00:45;;;;;;;6.57;5.30;;;;;;;7.19;100.00;101866.59;10405788;28;20448;-81
2023/03/20 08:05:45;;;;;;;17.48;7.30;;;;;;;7.16;100.00;101878.50;10428979;28;20041;-80
2023/03/20 08:10:47;;;;;;;15.18;6.30;;;;;;;7.13;100.00;101872.59;10421342;28;20457;-81
2023/03/20 08:15:47;;;;;;;16.13;6.00;;;;;;;6.95;100.00;101876.06;10420728;28;20030;-82
2023/03/20 08:20:49;;;;;;;17.70;7.25;;;;;;;7.14;100.00;101872.41;10419374;28;20033;-82
2023/03/20 08:25:50;;;;;;;14.57;6.32;;;;;;;7.25;100.00;101875.91;10419458;28;20462;-80
2023/03/20 08:30:50;;;;;;;8.85;6.30;;;;;;;7.29;100.00;101866.53;10403213;28;20061;-79
2023/03/20 08:35:55;;;;;;;22.63;6.57;;;;;;;7.37;100.00;101867.47;10418658;28;20108;-78
2023/03/20 08:40:56;;;;;;;14.18;5.95;;;;;;;7.45;100.00;101867.53;10418668;28;20053;-78
2023/03/20 08:45:56;;;;;;;18.08;7.35;;;;;;;7.53;100.00;101863.22;10420528;28;20033;-78
2023/03/20 08:50:56;;;;;;;10.23;6.43;;;;;;;7.61;100.00;101860.59;10401937;28;20500;-78
2023/03/20 08:55:57;;;;;;;12.45;7.55;;;;;;;7.58;100.00;101861.75;10403166;28;20052;-78
2023/03/20 09:01:05;;;;;;;16.67;8.48;;;;;;;7.72;100.00;101857.66;10419744;28;20351;-77
2023/03/20 09:06:06;;;;;;;13.95;8.90;;;;;;;7.64;100.00;101861.16;10418975;28;20059;-77
2023/03/20 09:11:07;;;;;;;15.63;8.18;;;;;;;7.68;100.00;101857.13;10418795;28;20033;-77
2023/03/20 09:16:08;;;;;;;14.35;8.95;;;;;;;7.57;100.00;101867.31;10417630;28;20442;-77
2023/03/20 09:21:08;;;;;;;16.83;9.45;;;;;;;7.75;100.00;101870.00;10418497;28;20036;-77
2023/03/20 09:26:09;;;;;;;24.85;12.38;;;;;;;7.99;100.00;101869.34;10417764;28;20068;-77
2023/03/20 09:31:10;;;;;;;17.95;10.05;;;;;;;8.00;100.00;101871.88;10417566;28;20025;-76
2023/03/20 09:36:11;;;;;;;28.23;12.25;;;;;;;8.26;100.00;101865.66;10418062;28;20034;-76
2023/03/20 09:41:16;;;;;;;24.25;10.13;;;;;;;8.40;100.00;101867.81;10417081;28;20057;-77
2023/03/20 09:46:36;;;;;;;15.30;10.73;;;;;;;8.47;100.00;101862.63;10400535;28;20064;-77
2023/03/20 09:51:53;;;;;;;14.40;10.95;;;;;;;8.37;100.00;101866.25;10401721;28;20037;-76
2023/03/20 09:56:53;;;;;;;;;;;;;;;8.47;100.00;101855.38;10416430;28;20029;-76
2023/03/20 10:02:10;;;;;;;21.75;12.63;;;;;;;8.33;100.00;101862.19;10417031;28;19920;-76
2023/03/20 10:07:16;;;;;;;27.60;13.07;;;;;;;8.29;100.00;101857.25;10403274;28;20026;-76
2023/03/20 10:12:36;;;;;;;24.67;14.27;;;;;;;8.28;100.00;101856.41;10399715;28;20409;-76
2023/03/20 10:17:49;;;;;;;22.02;11.20;;;;;;;8.35;100.00;101854.75;10384643;28;20061;-76
2023/03/20 10:22:54;;;;;;;21.60;12.82;;;;;;;8.40;100.00;101840.81;10417626;28;20029;-76
2023/03/20 10:28:04;;;;;;;18.38;12.68;;;;;;;8.38;100.00;101851.78;10415741;28;20489;-76
2023/03/20 10:33:33;;;;;;;23.27;13.40;;;;;;;8.45;100.00;101851.97;10416063;28;20508;-76
2023/03/20 10:38:41;;;;;;;11.88;9.98;;;;;;;8.36;100.00;101834.03;10414441;28;20392;-76
2023/03/20 10:43:42;;;;;;;19.70;9.95;;;;;;;8.51;100.00;101835.13;10415795;28;20112;-77
2023/03/20 10:48:51;;;;;;;23.70;12.50;;;;;;;8.61;100.00;101833.19;10415442;28;20446;-76
2023/03/20 10:53:55;;;;;;;26.85;11.43;;;;;;;8.66;100.00;101824.59;10413517;28;20029;-76
2023/03/20 10:59:25;;;;;;;24.95;12.68;;;;;;;8.85;100.00;101813.50;10398471;28;20040;-76
2023/03/20 11:04:26;;;;;;;17.10;10.82;;;;;;;8.83;100.00;101814.69;10396761;28;20065;-76
2023/03/20 11:09:28;;;;;;;27.40;13.57;;;;;;;8.83;100.00;101815.53;10414911;28;20096;-77
2023/03/20 11:14:36;;;;;;;17.90;13.10;;;;;;;8.94;100.00;101810.84;10413567;28;20088;-76
2023/03/20 11:19:38;;;;;;;23.60;12.45;;;;;;;8.80;100.00;101810.44;10382477;28;20175;-76
2023/03/20 11:24:44;;;;;;;20.75;12.23;;;;;;;8.86;100.00;101798.16;10414202;28;20381;-76
2023/03/20 11:29:46;;;;;;;20.20;13.02;;;;;;;8.70;100.00;101804.34;10402167;28;20052;-76
2023/03/20 11:34:46;;;;;;;20.05;12.75;;;;;;;8.73;100.00;101808.56;10421238;28;20037;-76
2023/03/20 11:40:22;;;;;;;16.00;11.65;;;;;;;8.79;100.00;101807.94;10423609;28;20096;-76
2023/03/20 11:45:24;;;;;;;14.55;11.02;;;;;;;8.67;100.00;101817.31;10413150;28;20042;-76
2023/03/20 11:50:35;;;;;;;25.65;12.02;;;;;;;8.58;100.00;101817.31;10421571;28;20117;-76
2023/03/20 11:55:36;;;;;;;12.88;10.00;;;;;;;8.54;100.00;101809.69;10420605;28;20029;-77
2023/03/20 12:00:38;;;;;;;15.20;11.10;;;;;;;8.69;100.00;101805.34;10420503;28;20034;-77
2023/03/20 12:05:38;;;;;;;14.40;11.07;;;;;;;8.79;100.00;101810.63;10404476;28;20041;-78
2023/03/20 12:10:41;;;;;;;24.98;12.60;;;;;;;8.74;100.00;101803.03;10422666;28;20033;-77
2023/03/20 12:15:45;;;;;;;12.00;10.85;;;;;;;8.66;100.00;101808.38;10421594;28;20041;-77
2023/03/20 12:20:51;;;;;;;13.02;10.65;;;;;;;8.64;100.00;101799.59;10388765;28;20124;-78
2023/03/20 12:26:03;;;;;;;15.23;8.02;;;;;;;8.56;100.00;101789.63;10420087;28;20033;-78
2023/03/20 12:31:06;;;;;;;16.92;9.82;;;;;;;8.57;100.00;101785.91;10404199;28;20056;-78
2023/03/20 12:36:17;;;;;;;22.10;10.60;;;;;;;8.59;100.00;101800.09;10403886;28;20030;-79
2023/03/20 12:41:40;;;;;;;14.15;10.18;;;;;;;8.57;100.00;101787.75;10402759;28;20050;-79
2023/03/20 12:46:40;;;;;;;12.48;8.18;;;;;;;8.46;100.00;101793.47;10418855;28;20412;-79
2023/03/20 12:51:45;;;;;;;14.82;9.02;;;;;;;8.56;100.00;101773.41;10418970;28;20095;-80
2023/03/20 12:57:03;;;;;;;15.45;9.07;;;;;;;8.49;100.00;101775.09;10418252;28;20033;-80
2023/03/20 13:02:13;;;;;;;9.75;8.55;;;;;;;8.53;100.00;101765.66;10404602;28;20112;-83
2023/03/20 13:07:21;;;;;;;9.93;8.30;;;;;;;8.66;100.00;101775.97;10401259;28;20124;-83
2023/03/20 13:12:52;;;;;;;9.82;7.95;;;;;;;8.68;100.00;101760.47;10426346;28;20037;-82
2023/03/20 13:18:17;;;;;;;8.90;7.93;;;;;;;8.64;100.00;101759.09;10396564;28;20113;-82
2023/03/20 13:23:40;;;;;;;8.73;6.80;;;;;;;8.69;100.00;101750.50;10419273;28;20223;-82
2023/03/20 13:28:52;;;;;;;9.00;7.97;;;;;;;8.75;100.00;101748.00;10402533;28;20037;-81
2023/03/20 13:34:09;;;;;;;6.47;4.95;;;;;;;8.58;100.00;101747.13;10418011;28;20171;-81
2023/03/20 13:39:29;;;;;;;16.40;8.43;;;;;;;8.63;100.00;101743.06;10416530;28;20544;-81
2023/03/20 13:44:29;;;;;;;10.13;8.98;;;;;;;8.70;100.00;101747.63;10388531;28;20049;-81
2023/03/20 13:49:30;;;;;;;17.83;9.95;;;;;;;8.78;100.00;101746.84;10401648;28;20086;-81
2023/03/20 13:54:34;;;;;;;13.18;9.43;;;;;;;8.85;100.00;101742.44;10416326;28;20040;-81
2023/03/20 14:00:07;;;;;;;21.48;9.45;;;;;;;8.89;100.00;101743.81;10415371;28;20072;-81
2023/03/20 14:05:26;;;;;;;15.68;10.80;;;;;;;8.82;100.00;101738.22;10401274;28;20040;-81
2023/03/20 14:10:34;;;;;;;15.70;10.48;;;;;;;8.87;100.00;101745.84;10417421;28;20132;-82
2023/03/20 14:15:55;;;;;;;15.07;11.68;;;;;;;8.90;100.00;101731.13;10495446;28;20423;-81
2023/03/20 14:21:03;;;;;;;19.33;12.75;;;;;;;8.96;100.00;101730.47;10470660;28;20041;-81
2023/03/20 14:26:08;;;;;;;21.27;12.23;;;;;;;8.99;100.00;101722.88;10485953;28;20062;-81
2023/03/20 14:31:20;;;;;;;19.95;14.32;;;;;;;8.99;100.00;101722.88;10469392;28;20442;-81
2023/03/20 14:36:21;;;;;;;22.70;13.57;;;;;;;8.97;100.00;101724.91;10470247;28;20032;-81
2023/03/20 14:41:36;;;;;;;19.15;14.05;;;;;;;8.99;100.00;101717.47;10468994;28;20032;-81
2023/03/20 14:46:40;;;;;;;15.93;11.73;;;;;;;9.04;100.00;101715.13;10470536;28;20120;-81
2023/03/20 14:51:42;;;;;;;16.15;13.13;;;;;;;8.95;100.00;101708.03;10486060;28;20550;-81
2023/03/20 14:56:43;;;;;;;12.77;11.48;;;;;;;9.07;100.00;101713.94;10484889;28;20094;-81
2023/03/20 15:02:02;;;;;;;12.98;9.20;;;;;;;9.10;100.00;101704.69;10487175;28;20087;-82
2023/03/20 15:07:03;;;;;;;12.70;8.43;;;;;;;9.08;100.00;101704.81;10485859;28;20033;-81
2023/03/20 15:12:04;;;;;;;12.55;8.20;;;;;;;9.08;100.00;101700.25;10486581;28;20084;-82
2023/03/20 15:17:06;;;;;;;18.08;7.20;;;;;;;9.14;100.00;101704.16;10486892;28;20079;-80
2023/03/20 15:22:16;;;;;;;7.57;6.65;;;;;;;9.16;100.00;101696.75;10483821;28;20175;-80
2023/03/20 15:27:17;;;;;;;18.35;6.88;;;;;;;9.18;100.00;101701.97;10423483;28;20029;-80
2023/03/20 15:32:17;;;;;;;14.63;6.80;;;;;;;9.21;100.00;101699.75;10456306;28;20032;-80
2023/03/20 15:37:21;;;;;;;17.00;6.28;;;;;;;9.27;100.00;101698.25;10456446;28;20071;-80
2023/03/20 15:42:22;;;;;;;18.83;7.03;;;;;;;9.27;100.00;101682.88;10442274;28;20025;-80
2023/03/20 15:47:23;;;;;;;12.55;7.55;;;;;;;9.27;100.00;101687.44;10457865;28;20487;-79
2023/03/20 15:52:41;;;;;;;18.60;7.40;;;;;;;9.28;100.00;101689.13;10439360;28;20044;-79
2023/03/20 15:57:43;;;;;;;23.95;6.57;;;;;;;9.23;100.00;101680.69;10439208;28;20078;-79
2023/03/20 16:02:47;;;;;;;7.85;5.63;;;;;;;9.16;100.00;101675.13;10455170;28;20060;-79
2023/03/20 16:07:48;;;;;;;13.98;5.43;;;;;;;9.20;100.00;101672.91;10438364;28;20045;-78
2023/03/20 16:12:49;;;;;;;11.15;6.38;;;;;;;9.17;100.00;101663.28;10455927;28;20086;-79
2023/03/20 16:17:51;;;;;;;10.52;6.13;;;;;;;9.17;100.00;101679.50;10456152;28;20056;-78
2023/03/20 16:22:52;;;;;;;12.00;4.90;;;;;;;9.17;100.00;101675.97;10438260;28;20460;-78
2023/03/20 16:27:53;;;;;;;11.98;6.20;;;;;;;9.15;100.00;101680.69;10436906;28;20531;-78
2023/03/20 16:32:58;;;;;;;9.05;4.20;;;;;;;9.11;100.00;101682.03;10453828;28;20024;-78
2023/03/20 16:38:00;;;;;;;11.18;5.13;;;;;;;9.11;100.00;101672.06;10436535;28;20041;-78
2023/03/20 16:43:17;;;;;;;5.18;3.92;;;;;;;9.08;100.00;101672.41;10453402;28;20029;-78
2023/03/20 16:48:23;;;;;;;;;;;;;;;9.08;100.00;101673.25;10453655;28;20028;-78
2023/03/20 16:53:26;;;;;;;13.20;4.95;;;;;;;9.12;100.00;101672.91;10453879;28;19913;-77
2023/03/20 16:58:28;;;;;;;16.02;5.25;;;;;;;9.10;100.00;101673.09;10437575;28;20024;-77
2023/03/20 17:03:35;;;;;;;7.35;3.65;;;;;;;9.10;100.00;101669.56;10453885;28;20032;-77
2023/03/20 17:08:39;;;;;;;5.55;3.72;;;;;;;9.06;100.00;101680.69;10437110;28;20121;-78
2023/03/20 17:13:40;;;;;;;13.95;6.50;;;;;;;9.05;100.00;101668.19;10453005;28;20472;-76
2023/03/20 17:18:40;;;;;;;22.58;6.05;;;;;;;9.04;100.00;101677.31;10454495;28;20139;-76
2023/03/20 17:23:41;;;;;;;5.38;3.60;;;;;;;9.04;100.00;101673.75;10435294;28;20033;-76
2023/03/20 17:28:42;;;;;;;7.65;4.15;;;;;;;9.00;100.00;101680.53;10451878;28;20040;-76
2023/03/20 17:33:42;;;;;;;6.57;3.65;;;;;;;9.06;100.00;101679.81;10435283;28;20115;-76
2023/03/20 17:38:43;;;;;;;5.82;3.17;;;;;;;9.02;100.00;101682.03;10435395;28;20036;-76
2023/03/20 17:43:44;;;;;;;14.18;2.58;;;;;;;9.00;100.00;101691.31;10419842;28;20043;-76
2023/03/20 17:48:45;;;;;;;4.57;3.47;;;;;;;8.97;100.00;101692.50;10437418;28;20292;-76
2023/03/20 17:53:46;;;;;;;3.95;2.95;;;;;;;8.96;100.00;101704.31;10450736;28;20090;-75
2023/03/20 17:58:48;;;;;;;5.00;3.45;;;;;;;9.00;100.00;101702.13;10450508;28;20132;-76
2023/03/20 18:03:48;;;;;;;12.52;4.45;;;;;;;9.00;100.00;101705.69;10434160;28;20148;-76
2023/03/20 18:08:49;;;;;;;10.15;5.05;;;;;;;8.99;100.00;101712.06;10417897;28;20032;-76
2023/03/20 18:13:49;;;;;;;3.95;2.95;;;;;;;9.01;100.00;101709.22;10433687;28;20060;-76
2023/03/20 18:18:50;;;;;;;4.93;4.53;;;;;;;9.01;100.00;101714.63;10455255;28;20127;-76
2023/03/20 18:23:50;;;;;;;3.53;3.22;;;;;;;9.03;100.00;101708.03;10450367;28;20096;-76
2023/03/20 18:28:51;;;;;;;6.05;4.05;;;;;;;9.04;100.00;101717.84;10449890;28;20116;-77
2023/03/20 18:33:52;;;;;;;4.43;3.88;;;;;;;9.01;100.00;101707.34;10450511;28;20025;-77
2023/03/20 18:38:54;;;;;;;7.63;4.07;;;;;;;9.04;100.00;101720.53;10449485;28;20394;-76
2023/03/20 18:43:54;;;;;;;7.88;3.95;;;;;;;9.03;100.00;101718.84;10449885;28;20029;-76
2023/03/20 18:48:55;;;;;;;5.93;5.28;;;;;;;9.01;100.00;101707.34;10449645;28;20482;-76
2023/03/20 18:53:56;;;;;;;6.22;5.63;;;;;;;9.00;100.00;101708.38;10449284;28;20036;-76
2023/03/20 18:58:56;;;;;;;9.27;5.68;;;;;;;9.03;100.00;101704.47;10451318;28;20040;-77
2023/03/20 19:03:56;;;;;;;6.22;5.25;;;;;;;9.05;100.00;101711.41;10440297;28;20039;-77
2023/03/20 19:08:57;;;;;;;5.70;5.13;;;;;;;9.02;100.00;101700.94;10458437;28;20099;-77
2023/03/20 19:13:57;;;;;;;4.50;3.75;;;;;;;9.04;100.00;101698.91;10423475;28;20147;-77
2023/03/20 19:19:00;;;;;;;5.35;4.25;;;;;;;9.08;100.00;101699.44;10462715;28;20090;-77
2023/03/20 19:24:02;;;;;;;5.40;3.03;;;;;;;9.02;100.00;101692.81;10456549;28;20033;-77
2023/03/20 19:29:05;;;;;;;3.05;2.78;;;;;;;9.01;100.00;101690.31;10423365;28;20514;-77
2023/03/20 19:34:05;;;;;;;3.40;3.10;;;;;;;9.05;100.00;101689.78;10439990;28;20033;-77
2023/03/20 19:39:07;;;;;;;4.95;4.45;;;;;;;9.05;100.00;101683.53;10456862;28;20060;-77
2023/03/20 19:44:07;;;;;;;4.97;4.57;;;;;;;9.09;100.00;101682.19;10454454;28;20344;-75
2023/03/20 19:49:15;;;;;;;4.47;4.03;;;;;;;9.08;100.00;101685.91;10437178;28;20128;-76
2023/03/20 19:54:16;;;;;;;9.23;4.55;;;;;;;9.11;100.00;101676.63;10439014;28;20074;-75
2023/03/20 19:59:16;;;;;;;7.30;6.10;;;;;;;9.10;100.00;101680.34;10455892;28;20071;-75
2023/03/20 20:04:17;;;;;;;7.20;6.53;;;;;;;9.13;100.00;101677.31;10456353;28;20029;-75
2023/03/20 20:09:19;;;;;;;8.60;7.80;;;;;;;9.15;100.00;101667.16;10495920;28;20498;-75
2023/03/20 20:14:19;;;;;;;7.10;6.60;;;;;;;9.14;100.00;101665.50;10478756;28;20053;-75
2023/03/20 20:19:20;;;;;;;15.05;7.85;;;;;;;9.17;100.00;101665.16;10463131;28;20044;-75
2023/03/20 20:24:20;;;;;;;9.75;8.73;;;;;;;9.16;100.00;101661.59;10499484;28;20439;-75
2023/03/20 20:29:29;;;;;;;11.23;9.85;;;;;;;9.11;100.00;101655.84;10494852;28;20109;-76
2023/03/20 20:34:29;;;;;;;9.18;8.38;;;;;;;9.10;100.00;101656.88;10478537;28;20033;-75
2023/03/20 20:39:30;;;;;;;11.65;10.45;;;;;;;9.10;100.00;101665.00;10488031;28;20036;-76
2023/03/20 20:44:31;;;;;;;11.75;8.85;;;;;;;9.07;100.00;101652.66;10454046;28;20124;-75
2023/03/20 20:49:32;;;;;;;11.48;9.05;;;;;;;9.03;100.00;101662.13;10452655;28;20458;-76
2023/03/20 20:54:33;;;;;;;13.57;10.63;;;;;;;9.05;100.00;101654.66;10451825;28;20094;-76
2023/03/20 20:59:36;;;;;;;16.33;13.25;;;;;;;9.05;100.00;101657.38;10419283;28;20041;-75
2023/03/20 21:04:38;;;;;;;16.98;13.25;;;;;;;9.01;100.00;101645.22;10451863;28;20490;-76
2023/03/20 21:09:39;;;;;;;16.27;13.93;;;;;;;9.03;100.00;101654.00;10451987;28;20052;-76
2023/03/20 21:14:41;;;;;;;15.82;14.18;;;;;;;9.06;100.00;101652.81;10466525;28;20056;-78
2023/03/20 21:19:42;;;;;;;14.43;12.95;;;;;;;9.05;100.00;101651.97;10475870;28;20039;-78
2023/03/20 21:24:42;;;;;;;9.40;8.55;;;;;;;9.04;100.00;101646.75;10430939;28;20523;-76
2023/03/20 21:29:43;;;;;;;12.55;11.38;;;;;;;9.03;100.00;101658.53;10451516;28;20064;-76
2023/03/20 21:34:44;;;;;;;12.45;10.98;;;;;;;9.00;100.00;101650.81;10466175;28;20029;-75
2023/03/20 21:39:44;;;;;;;11.90;10.73;;;;;;;8.99;100.00;101643.69;10475543;28;20086;-76
2023/03/20 21:44:46;;;;;;;16.17;12.43;;;;;;;9.01;100.00;101647.91;10475452;28;20416;-76
2023/03/20 21:49:47;;;;;;;12.70;11.02;;;;;;;9.00;100.00;101643.53;10475666;28;20029;-77
2023/03/20 21:54:49;;;;;;;10.50;9.63;;;;;;;8.98;100.00;101637.44;10493047;28;20056;-76
2023/03/20 21:59:52;;;;;;;15.60;11.10;;;;;;;8.96;100.00;101636.75;10461296;28;20048;-74
2023/03/20 22:04:54;;;;;;;12.65;10.23;;;;;;;8.99;100.00;101636.44;10434692;28;20032;-76
2023/03/20 22:09:57;;;;;;;19.50;10.63;;;;;;;8.94;100.00;101633.41;10450346;28;20033;-76
2023/03/20 22:14:58;;;;;;;14.63;13.05;;;;;;;8.95;100.00;101634.25;10450583;28;20060;-76
2023/03/20 22:19:59;;;;;;;18.45;14.45;;;;;;;8.96;100.00;101633.22;10450158;28;20037;-76
2023/03/20 22:25:00;;;;;;;16.00;13.60;;;;;;;8.97;100.00;101643.03;10449721;28;20033;-76
2023/03/20 22:30:00;;;;;;;15.75;12.88;;;;;;;8.94;100.00;101632.56;10457458;28;20083;-76
2023/03/20 22:35:00;;;;;;;17.65;13.07;;;;;;;8.93;100.00;101620.91;10437441;28;20567;-76
2023/03/20 22:40:01;;;;;;;14.70;10.57;;;;;;;8.94;100.00;101617.19;10458427;28;20068;-76
2023/03/20 22:45:02;;;;;;;17.50;12.90;;;;;;;8.93;100.00;101620.06;10441545;28;20427;-75
2023/03/20 22:50:04;;;;;;;20.27;13.90;;;;;;;8.92;100.00;101616.50;10457879;28;20041;-76
2023/03/20 22:55:05;;;;;;;16.85;12.75;;;;;;;8.96;100.00;101617.84;10457207;28;20037;-76
2023/03/20 23:00:06;;;;;;;14.55;13.02;;;;;;;8.96;100.00;101607.06;10458371;28;20091;-75